sensor_id;sensor_type;location;lat;lon;timestamp;temperature;humidity
10300;DHT22;5195;48.562;9.192;2022-08-11T00:01:32;23.30;30.90
10300;DHT22;5195;48.562;9.192;2022-08-11T00:04:08;23.20;30.70
10300;DHT22;5195;48.562;9.192;2022-08-11T00:06:45;23.00;31.00
10300;DHT22;5195;48.562;9.192;2022-08-11T00:09:21;23.10;31.20
10300;DHT22;5195;48.562;9.192;2022-08-11T00:11:57;23.40;30.80
10300;DHT22;5195;48.562;9.192;2022-08-11T00:14:33;23.20;30.80
10300;DHT22;5195;48.562;9.192;2022-08-11T00:17:10;23.30;31.00
10300;DHT22;5195;48.562;9.192;2022-08-11T00:19:44;23.10;31.00
10300;DHT22;5195;48.562;9.192;2022-08-11T00:22:20;22.70;31.20
10300;DHT22;5195;48.562;9.192;2022-08-11T00:24:56;23.00;31.60
10300;DHT22;5195;48.562;9.192;2022-08-11T00:27:33;23.20;31.30
10300;DHT22;5195;48.562;9.192;2022-08-11T00:30:09;23.10;31.50
10300;DHT22;5195;48.562;9.192;2022-08-11T00:32:45;23.10;31.50
10300;DHT22;5195;48.562;9.192;2022-08-11T00:35:21;22.90;31.40
10300;DHT22;5195;48.562;9.192;2022-08-11T00:37:55;23.00;31.60
10300;DHT22;5195;48.562;9.192;2022-08-11T00:40:43;22.80;31.50
10300;DHT22;5195;48.562;9.192;2022-08-11T00:43:24;22.90;31.70
10300;DHT22;5195;48.562;9.192;2022-08-11T00:50:00;22.80;31.90
10300;DHT22;5195;48.562;9.192;2022-08-11T00:52:12;22.60;31.90
10300;DHT22;5195;48.562;9.192;2022-08-11T00:55:01;22.30;32.20
10300;DHT22;5195;48.562;9.192;2022-08-11T00:57:52;22.00;32.50
10300;DHT22;5195;48.562;9.192;2022-08-11T01:00:25;21.80;32.60
10300;DHT22;5195;48.562;9.192;2022-08-11T01:03:26;22.20;33.10
10300;DHT22;5195;48.562;9.192;2022-08-11T01:09:29;22.40;32.50
10300;DHT22;5195;48.562;9.192;2022-08-11T01:15:14;22.00;33.60
10300;DHT22;5195;48.562;9.192;2022-08-11T01:29:04;22.20;32.90
10300;DHT22;5195;48.562;9.192;2022-08-11T01:44:19;22.80;32.30
10300;DHT22;5195;48.562;9.192;2022-08-11T01:50:44;21.80;33.00
10300;DHT22;5195;48.562;9.192;2022-08-11T01:56:34;21.10;33.70
10300;DHT22;5195;48.562;9.192;2022-08-11T01:59:18;21.00;34.10
10300;DHT22;5195;48.562;9.192;2022-08-11T02:02:21;20.80;34.20
10300;DHT22;5195;48.562;9.192;2022-08-11T02:05:02;20.70;34.50
10300;DHT22;5195;48.562;9.192;2022-08-11T02:07:39;21.10;35.10
10300;DHT22;5195;48.562;9.192;2022-08-11T02:10:17;21.10;34.70
10300;DHT22;5195;48.562;9.192;2022-08-11T02:22:06;21.60;34.10
10300;DHT22;5195;48.562;9.192;2022-08-11T02:25:05;21.80;34.10
10300;DHT22;5195;48.562;9.192;2022-08-11T02:27:44;21.60;34.10
10300;DHT22;5195;48.562;9.192;2022-08-11T02:30:19;21.70;34.40
10300;DHT22;5195;48.562;9.192;2022-08-11T02:32:57;22.00;34.50
10300;DHT22;5195;48.562;9.192;2022-08-11T02:36:06;22.50;34.10
10300;DHT22;5195;48.562;9.192;2022-08-11T02:41:52;22.50;33.50
10300;DHT22;5195;48.562;9.192;2022-08-11T02:51:15;21.70;34.30
10300;DHT22;5195;48.562;9.192;2022-08-11T02:54:30;21.20;34.70
10300;DHT22;5195;48.562;9.192;2022-08-11T02:57:20;21.10;34.80
10300;DHT22;5195;48.562;9.192;2022-08-11T02:59:59;21.10;34.80
10300;DHT22;5195;48.562;9.192;2022-08-11T03:02:49;21.30;35.00
10300;DHT22;5195;48.562;9.192;2022-08-11T03:14:09;21.00;35.00
10300;DHT22;5195;48.562;9.192;2022-08-11T03:17:29;21.30;35.20
10300;DHT22;5195;48.562;9.192;2022-08-11T03:21:12;21.20;35.00
10300;DHT22;5195;48.562;9.192;2022-08-11T03:26:27;20.70;35.50
10300;DHT22;5195;48.562;9.192;2022-08-11T03:29:05;21.10;35.60
10300;DHT22;5195;48.562;9.192;2022-08-11T03:31:48;21.50;35.10
10300;DHT22;5195;48.562;9.192;2022-08-11T03:34:23;21.10;35.30
10300;DHT22;5195;48.562;9.192;2022-08-11T03:48:02;21.30;35.30
10300;DHT22;5195;48.562;9.192;2022-08-11T03:51:06;21.40;35.30
10300;DHT22;5195;48.562;9.192;2022-08-11T03:54:04;21.50;35.50
10300;DHT22;5195;48.562;9.192;2022-08-11T03:57:19;21.50;35.50
10300;DHT22;5195;48.562;9.192;2022-08-11T04:03:34;21.90;34.70
10300;DHT22;5195;48.562;9.192;2022-08-11T04:06:30;21.50;34.80
10300;DHT22;5195;48.562;9.192;2022-08-11T04:30:13;21.60;35.30
10300;DHT22;5195;48.562;9.192;2022-08-11T04:33:08;21.40;35.40
10300;DHT22;5195;48.562;9.192;2022-08-11T04:45:39;20.90;36.00
10300;DHT22;5195;48.562;9.192;2022-08-11T04:51:37;20.40;36.50
10300;DHT22;5195;48.562;9.192;2022-08-11T04:54:46;20.20;36.70
10300;DHT22;5195;48.562;9.192;2022-08-11T05:08:15;20.00;37.40
10300;DHT22;5195;48.562;9.192;2022-08-11T05:10:55;20.60;37.60
10300;DHT22;5195;48.562;9.192;2022-08-11T05:13:45;20.90;37.10
10300;DHT22;5195;48.562;9.192;2022-08-11T05:19:45;20.90;36.80
10300;DHT22;5195;48.562;9.192;2022-08-11T05:22:46;20.70;37.00
10300;DHT22;5195;48.562;9.192;2022-08-11T05:25:41;20.50;37.10
10300;DHT22;5195;48.562;9.192;2022-08-11T05:28:36;20.40;37.30
10300;DHT22;5195;48.562;9.192;2022-08-11T05:31:35;20.40;37.50
10300;DHT22;5195;48.562;9.192;2022-08-11T05:34:41;20.30;37.50
10300;DHT22;5195;48.562;9.192;2022-08-11T05:40:10;20.30;37.60
10300;DHT22;5195;48.562;9.192;2022-08-11T05:43:07;20.30;37.80
10300;DHT22;5195;48.562;9.192;2022-08-11T05:46:04;20.30;37.80
10300;DHT22;5195;48.562;9.192;2022-08-11T05:48:58;20.80;38.00
10300;DHT22;5195;48.562;9.192;2022-08-11T05:51:54;20.90;36.90
10300;DHT22;5195;48.562;9.192;2022-08-11T05:54:49;21.30;37.40
10300;DHT22;5195;48.562;9.192;2022-08-11T05:57:45;21.40;37.00
10300;DHT22;5195;48.562;9.192;2022-08-11T06:00:20;21.20;37.00
10300;DHT22;5195;48.562;9.192;2022-08-11T06:02:58;21.40;37.00
10300;DHT22;5195;48.562;9.192;2022-08-11T06:05:33;21.50;36.90
10300;DHT22;5195;48.562;9.192;2022-08-11T06:08:09;21.30;36.80
10300;DHT22;5195;48.562;9.192;2022-08-11T06:10:45;21.60;37.20
10300;DHT22;5195;48.562;9.192;2022-08-11T06:13:20;21.60;37.20
10300;DHT22;5195;48.562;9.192;2022-08-11T06:15:56;21.70;37.20
10300;DHT22;5195;48.562;9.192;2022-08-11T06:18:33;21.70;37.10
10300;DHT22;5195;48.562;9.192;2022-08-11T06:21:10;21.60;37.20
10300;DHT22;5195;48.562;9.192;2022-08-11T06:23:45;21.90;36.80
10300;DHT22;5195;48.562;9.192;2022-08-11T06:26:21;22.40;36.10
10300;DHT22;5195;48.562;9.192;2022-08-11T06:28:57;22.50;36.20
10300;DHT22;5195;48.562;9.192;2022-08-11T06:31:32;22.70;36.00
10300;DHT22;5195;48.562;9.192;2022-08-11T06:34:10;23.00;35.90
10300;DHT22;5195;48.562;9.192;2022-08-11T06:36:50;23.00;35.90
10300;DHT22;5195;48.562;9.192;2022-08-11T06:42:10;22.80;36.30
10300;DHT22;5195;48.562;9.192;2022-08-11T06:45:00;23.10;35.80
10300;DHT22;5195;48.562;9.192;2022-08-11T06:47:27;23.20;35.70
10300;DHT22;5195;48.562;9.192;2022-08-11T06:50:03;24.30;34.70
10300;DHT22;5195;48.562;9.192;2022-08-11T06:52:59;24.20;34.60
10300;DHT22;5195;48.562;9.192;2022-08-11T06:55:34;25.00;34.00
10300;DHT22;5195;48.562;9.192;2022-08-11T06:58:31;25.50;33.30
10300;DHT22;5195;48.562;9.192;2022-08-11T07:01:40;25.60;33.20
10300;DHT22;5195;48.562;9.192;2022-08-11T07:04:19;25.80;32.50
10300;DHT22;5195;48.562;9.192;2022-08-11T07:07:22;26.20;32.10
10300;DHT22;5195;48.562;9.192;2022-08-11T07:10:32;26.60;32.00
10300;DHT22;5195;48.562;9.192;2022-08-11T07:13:26;26.60;32.00
10300;DHT22;5195;48.562;9.192;2022-08-11T07:16:24;26.60;31.60
10300;DHT22;5195;48.562;9.192;2022-08-11T07:19:01;26.60;31.70
10300;DHT22;5195;48.562;9.192;2022-08-11T07:21:55;26.30;31.90
10300;DHT22;5195;48.562;9.192;2022-08-11T07:24:56;26.10;32.20
10300;DHT22;5195;48.562;9.192;2022-08-11T07:28:20;26.40;31.80
10300;DHT22;5195;48.562;9.192;2022-08-11T07:30:48;26.40;31.90
10300;DHT22;5195;48.562;9.192;2022-08-11T07:33:26;26.70;31.60
10300;DHT22;5195;48.562;9.192;2022-08-11T07:35:59;26.80;31.70
10300;DHT22;5195;48.562;9.192;2022-08-11T07:38:40;26.70;31.90
10300;DHT22;5195;48.562;9.192;2022-08-11T07:41:23;26.70;32.10
10300;DHT22;5195;48.562;9.192;2022-08-11T07:43:59;27.10;31.20
10300;DHT22;5195;48.562;9.192;2022-08-11T07:46:47;27.20;31.20
10300;DHT22;5195;48.562;9.192;2022-08-11T07:49:43;27.70;30.60
10300;DHT22;5195;48.562;9.192;2022-08-11T07:52:37;28.20;29.90
10300;DHT22;5195;48.562;9.192;2022-08-11T07:55:14;28.10;29.80
10300;DHT22;5195;48.562;9.192;2022-08-11T07:57:48;28.20;29.90
10300;DHT22;5195;48.562;9.192;2022-08-11T08:00:56;28.10;30.10
10300;DHT22;5195;48.562;9.192;2022-08-11T08:03:42;28.40;29.40
10300;DHT22;5195;48.562;9.192;2022-08-11T08:06:38;28.70;29.50
10300;DHT22;5195;48.562;9.192;2022-08-11T08:09:35;28.80;29.40
10300;DHT22;5195;48.562;9.192;2022-08-11T08:12:30;28.80;29.30
10300;DHT22;5195;48.562;9.192;2022-08-11T08:15:26;28.60;29.40
10300;DHT22;5195;48.562;9.192;2022-08-11T08:18:21;28.50;29.40
10300;DHT22;5195;48.562;9.192;2022-08-11T08:20:57;28.50;29.40
10300;DHT22;5195;48.562;9.192;2022-08-11T08:23:32;28.80;28.50
10300;DHT22;5195;48.562;9.192;2022-08-11T08:26:11;29.30;28.40
10300;DHT22;5195;48.562;9.192;2022-08-11T08:28:46;29.40;28.40
10300;DHT22;5195;48.562;9.192;2022-08-11T08:31:42;29.30;28.60
10300;DHT22;5195;48.562;9.192;2022-08-11T08:34:17;29.30;28.70
10300;DHT22;5195;48.562;9.192;2022-08-11T08:36:53;29.70;28.20
10300;DHT22;5195;48.562;9.192;2022-08-11T08:39:29;29.80;28.00
10300;DHT22;5195;48.562;9.192;2022-08-11T08:55:50;31.00;26.50
10300;DHT22;5195;48.562;9.192;2022-08-11T08:58:17;30.90;26.60
10300;DHT22;5195;48.562;9.192;2022-08-11T09:00:43;30.60;26.90
10300;DHT22;5195;48.562;9.192;2022-08-11T09:03:09;30.60;26.90
10300;DHT22;5195;48.562;9.192;2022-08-11T09:05:35;30.50;27.00
10300;DHT22;5195;48.562;9.192;2022-08-11T09:08:01;30.90;26.30
10300;DHT22;5195;48.562;9.192;2022-08-11T09:10:27;30.80;26.20
10300;DHT22;5195;48.562;9.192;2022-08-11T09:12:52;31.00;24.70
10300;DHT22;5195;48.562;9.192;2022-08-11T09:15:18;31.20;24.00
10300;DHT22;5195;48.562;9.192;2022-08-11T09:17:46;31.30;23.90
10300;DHT22;5195;48.562;9.192;2022-08-11T09:22:42;31.30;24.30
10300;DHT22;5195;48.562;9.192;2022-08-11T09:25:27;31.20;24.30
10300;DHT22;5195;48.562;9.192;2022-08-11T09:28:12;31.30;23.60
10300;DHT22;5195;48.562;9.192;2022-08-11T09:30:40;31.40;23.60
10300;DHT22;5195;48.562;9.192;2022-08-11T09:33:05;31.30;24.00
10300;DHT22;5195;48.562;9.192;2022-08-11T09:35:33;31.40;24.10
10300;DHT22;5195;48.562;9.192;2022-08-11T09:37:57;31.40;24.40
10300;DHT22;5195;48.562;9.192;2022-08-11T09:40:45;31.20;24.00
10300;DHT22;5195;48.562;9.192;2022-08-11T09:43:09;31.50;23.50
10300;DHT22;5195;48.562;9.192;2022-08-11T09:45:55;31.40;23.50
10300;DHT22;5195;48.562;9.192;2022-08-11T09:48:24;31.70;23.20
10300;DHT22;5195;48.562;9.192;2022-08-11T09:50:52;31.90;23.00
10300;DHT22;5195;48.562;9.192;2022-08-11T09:53:16;31.80;23.30
10300;DHT22;5195;48.562;9.192;2022-08-11T09:55:44;31.90;23.60
10300;DHT22;5195;48.562;9.192;2022-08-11T09:58:10;31.90;23.40
10300;DHT22;5195;48.562;9.192;2022-08-11T10:00:39;31.90;22.50
10300;DHT22;5195;48.562;9.192;2022-08-11T10:05:36;31.80;23.00
10300;DHT22;5195;48.562;9.192;2022-08-11T10:08:22;31.70;22.90
10300;DHT22;5195;48.562;9.192;2022-08-11T10:10:47;31.50;22.80
10300;DHT22;5195;48.562;9.192;2022-08-11T10:13:17;31.40;22.80
10300;DHT22;5195;48.562;9.192;2022-08-11T10:15:42;31.60;21.90
10300;DHT22;5195;48.562;9.192;2022-08-11T10:18:08;31.80;21.20
10300;DHT22;5195;48.562;9.192;2022-08-11T10:20:56;32.10;20.70
10300;DHT22;5195;48.562;9.192;2022-08-11T10:23:21;32.10;21.40
10300;DHT22;5195;48.562;9.192;2022-08-11T10:26:06;32.00;21.80
10300;DHT22;5195;48.562;9.192;2022-08-11T10:28:52;31.90;21.70
10300;DHT22;5195;48.562;9.192;2022-08-11T10:31:18;31.70;21.80
10300;DHT22;5195;48.562;9.192;2022-08-11T10:34:03;31.50;22.00
10300;DHT22;5195;48.562;9.192;2022-08-11T10:36:35;31.50;22.10
10300;DHT22;5195;48.562;9.192;2022-08-11T10:39:04;31.40;22.00
10300;DHT22;5195;48.562;9.192;2022-08-11T10:41:29;31.30;22.10
10300;DHT22;5195;48.562;9.192;2022-08-11T10:44:15;31.30;22.20
10300;DHT22;5195;48.562;9.192;2022-08-11T10:46:40;31.60;21.60
10300;DHT22;5195;48.562;9.192;2022-08-11T10:49:26;31.80;21.70
10300;DHT22;5195;48.562;9.192;2022-08-11T10:51:52;32.10;21.10
10300;DHT22;5195;48.562;9.192;2022-08-11T10:54:37;32.20;21.30
10300;DHT22;5195;48.562;9.192;2022-08-11T10:57:22;32.40;21.30
10300;DHT22;5195;48.562;9.192;2022-08-11T11:00:10;32.60;21.10
10300;DHT22;5195;48.562;9.192;2022-08-11T11:02:36;32.90;21.00
10300;DHT22;5195;48.562;9.192;2022-08-11T11:05:27;32.80;21.00
10300;DHT22;5195;48.562;9.192;2022-08-11T11:08:12;32.80;21.00
10300;DHT22;5195;48.562;9.192;2022-08-11T11:10:38;32.70;20.60
10300;DHT22;5195;48.562;9.192;2022-08-11T11:13:03;32.70;20.50
10300;DHT22;5195;48.562;9.192;2022-08-11T11:15:48;32.70;20.50
10300;DHT22;5195;48.562;9.192;2022-08-11T11:18:35;32.60;20.10
10300;DHT22;5195;48.562;9.192;2022-08-11T11:21:02;32.40;20.30
10300;DHT22;5195;48.562;9.192;2022-08-11T11:23:36;32.30;20.20
10300;DHT22;5195;48.562;9.192;2022-08-11T11:31:52;32.20;20.80
10300;DHT22;5195;48.562;9.192;2022-08-11T11:37:13;32.30;20.20
10300;DHT22;5195;48.562;9.192;2022-08-11T11:39:39;32.40;21.00
10300;DHT22;5195;48.562;9.192;2022-08-11T11:42:06;32.30;21.10
10300;DHT22;5195;48.562;9.192;2022-08-11T11:44:32;32.00;21.40
10300;DHT22;5195;48.562;9.192;2022-08-11T11:46:58;31.90;21.30
10300;DHT22;5195;48.562;9.192;2022-08-11T11:49:24;32.10;21.60
10300;DHT22;5195;48.562;9.192;2022-08-11T11:51:49;32.40;20.50
10300;DHT22;5195;48.562;9.192;2022-08-11T11:54:15;32.50;20.60
10300;DHT22;5195;48.562;9.192;2022-08-11T11:56:40;32.30;20.20
10300;DHT22;5195;48.562;9.192;2022-08-11T11:59:05;32.10;20.40
10300;DHT22;5195;48.562;9.192;2022-08-11T12:01:51;32.00;20.90
10300;DHT22;5195;48.562;9.192;2022-08-11T12:04:18;32.10;20.90
10300;DHT22;5195;48.562;9.192;2022-08-11T12:06:43;32.10;21.40
10300;DHT22;5195;48.562;9.192;2022-08-11T12:09:10;32.50;20.00
10300;DHT22;5195;48.562;9.192;2022-08-11T12:11:35;32.50;20.00
10300;DHT22;5195;48.562;9.192;2022-08-11T12:14:21;32.50;20.10
10300;DHT22;5195;48.562;9.192;2022-08-11T12:16:47;32.50;19.80
10300;DHT22;5195;48.562;9.192;2022-08-11T12:19:14;32.70;19.90
10300;DHT22;5195;48.562;9.192;2022-08-11T12:21:39;32.80;19.90
10300;DHT22;5195;48.562;9.192;2022-08-11T12:24:04;32.70;20.00
10300;DHT22;5195;48.562;9.192;2022-08-11T12:26:50;32.70;19.80
10300;DHT22;5195;48.562;9.192;2022-08-11T12:29:35;32.80;20.20
10300;DHT22;5195;48.562;9.192;2022-08-11T12:32:01;32.70;20.10
10300;DHT22;5195;48.562;9.192;2022-08-11T12:34:26;32.30;19.90
10300;DHT22;5195;48.562;9.192;2022-08-11T12:36:58;32.30;20.30
10300;DHT22;5195;48.562;9.192;2022-08-11T12:39:34;32.40;20.00
10300;DHT22;5195;48.562;9.192;2022-08-11T12:42:19;32.60;19.60
10300;DHT22;5195;48.562;9.192;2022-08-11T12:45:12;32.40;19.50
10300;DHT22;5195;48.562;9.192;2022-08-11T12:48:00;32.30;19.50
10300;DHT22;5195;48.562;9.192;2022-08-11T12:50:40;32.50;19.90
10300;DHT22;5195;48.562;9.192;2022-08-11T12:53:29;32.60;19.90
10300;DHT22;5195;48.562;9.192;2022-08-11T12:55:54;32.40;20.00
10300;DHT22;5195;48.562;9.192;2022-08-11T12:58:40;32.40;20.50
10300;DHT22;5195;48.562;9.192;2022-08-11T13:01:05;32.60;20.20
10300;DHT22;5195;48.562;9.192;2022-08-11T13:03:50;32.80;20.20
10300;DHT22;5195;48.562;9.192;2022-08-11T13:06:36;32.80;19.50
10300;DHT22;5195;48.562;9.192;2022-08-11T13:09:02;32.90;19.60
10300;DHT22;5195;48.562;9.192;2022-08-11T13:11:27;32.80;19.40
10300;DHT22;5195;48.562;9.192;2022-08-11T13:14:13;32.80;19.30
10300;DHT22;5195;48.562;9.192;2022-08-11T13:16:38;32.60;19.80
10300;DHT22;5195;48.562;9.192;2022-08-11T13:19:24;32.00;20.10
10300;DHT22;5195;48.562;9.192;2022-08-11T13:21:50;31.90;20.00
10300;DHT22;5195;48.562;9.192;2022-08-11T13:24:16;31.80;20.30
10300;DHT22;5195;48.562;9.192;2022-08-11T13:26:44;31.60;20.50
10300;DHT22;5195;48.562;9.192;2022-08-11T13:29:09;31.80;20.30
10300;DHT22;5195;48.562;9.192;2022-08-11T13:31:35;31.80;20.50
10300;DHT22;5195;48.562;9.192;2022-08-11T13:34:01;31.70;20.80
10300;DHT22;5195;48.562;9.192;2022-08-11T13:36:26;31.50;20.80
10300;DHT22;5195;48.562;9.192;2022-08-11T13:38:52;31.40;20.80
10300;DHT22;5195;48.562;9.192;2022-08-11T13:41:17;31.30;20.90
10300;DHT22;5195;48.562;9.192;2022-08-11T13:44:03;31.20;20.90
10300;DHT22;5195;48.562;9.192;2022-08-11T13:46:28;31.10;20.90
10300;DHT22;5195;48.562;9.192;2022-08-11T13:48:54;31.10;21.10
10300;DHT22;5195;48.562;9.192;2022-08-11T13:51:20;31.00;20.80
10300;DHT22;5195;48.562;9.192;2022-08-11T13:54:05;31.20;20.60
10300;DHT22;5195;48.562;9.192;2022-08-11T13:56:21;31.30;20.60
10300;DHT22;5195;48.562;9.192;2022-08-11T13:58:46;31.20;20.50
10300;DHT22;5195;48.562;9.192;2022-08-11T14:01:14;31.40;19.80
10300;DHT22;5195;48.562;9.192;2022-08-11T14:03:40;31.40;19.80
10300;DHT22;5195;48.562;9.192;2022-08-11T14:06:05;31.30;20.10
10300;DHT22;5195;48.562;9.192;2022-08-11T14:08:31;31.10;20.40
10300;DHT22;5195;48.562;9.192;2022-08-11T14:10:58;31.30;20.00
10300;DHT22;5195;48.562;9.192;2022-08-11T14:13:44;31.50;20.90
10300;DHT22;5195;48.562;9.192;2022-08-11T14:16:20;31.50;20.80
10300;DHT22;5195;48.562;9.192;2022-08-11T14:18:45;31.40;20.90
10300;DHT22;5195;48.562;9.192;2022-08-11T14:21:11;31.50;20.80
10300;DHT22;5195;48.562;9.192;2022-08-11T14:23:59;31.80;20.30
10300;DHT22;5195;48.562;9.192;2022-08-11T14:26:25;32.10;19.90
10300;DHT22;5195;48.562;9.192;2022-08-11T14:29:07;32.00;20.00
10300;DHT22;5195;48.562;9.192;2022-08-11T14:31:31;31.70;20.20
10300;DHT22;5195;48.562;9.192;2022-08-11T14:33:58;31.70;20.50
10300;DHT22;5195;48.562;9.192;2022-08-11T14:36:22;31.70;20.70
10300;DHT22;5195;48.562;9.192;2022-08-11T14:38:48;31.50;20.90
10300;DHT22;5195;48.562;9.192;2022-08-11T14:41:13;31.40;20.90
10300;DHT22;5195;48.562;9.192;2022-08-11T14:43:59;31.50;21.20
10300;DHT22;5195;48.562;9.192;2022-08-11T14:46:44;31.80;21.00
10300;DHT22;5195;48.562;9.192;2022-08-11T14:49:33;32.00;20.80
10300;DHT22;5195;48.562;9.192;2022-08-11T14:51:58;31.90;20.70
10300;DHT22;5195;48.562;9.192;2022-08-11T14:54:24;31.50;20.60
10300;DHT22;5195;48.562;9.192;2022-08-11T14:57:09;31.60;20.50
10300;DHT22;5195;48.562;9.192;2022-08-11T14:59:36;32.00;20.90
10300;DHT22;5195;48.562;9.192;2022-08-11T15:02:02;32.00;20.90
10300;DHT22;5195;48.562;9.192;2022-08-11T15:04:47;31.90;20.90
10300;DHT22;5195;48.562;9.192;2022-08-11T15:07:12;31.60;21.10
10300;DHT22;5195;48.562;9.192;2022-08-11T15:09:39;31.40;21.10
10300;DHT22;5195;48.562;9.192;2022-08-11T15:12:04;31.20;21.10
10300;DHT22;5195;48.562;9.192;2022-08-11T15:14:34;31.10;21.20
10300;DHT22;5195;48.562;9.192;2022-08-11T15:17:19;30.90;21.00
10300;DHT22;5195;48.562;9.192;2022-08-11T15:19:45;30.80;21.10
10300;DHT22;5195;48.562;9.192;2022-08-11T15:22:30;31.00;20.80
10300;DHT22;5195;48.562;9.192;2022-08-11T15:25:16;31.00;20.80
10300;DHT22;5195;48.562;9.192;2022-08-11T15:27:43;30.90;20.90
10300;DHT22;5195;48.562;9.192;2022-08-11T15:30:28;31.10;21.50
10300;DHT22;5195;48.562;9.192;2022-08-11T15:33:16;31.20;21.40
10300;DHT22;5195;48.562;9.192;2022-08-11T15:36:02;31.00;21.40
10300;DHT22;5195;48.562;9.192;2022-08-11T15:38:48;30.80;21.40
10300;DHT22;5195;48.562;9.192;2022-08-11T15:41:12;30.70;21.60
10300;DHT22;5195;48.562;9.192;2022-08-11T15:43:57;30.90;21.40
10300;DHT22;5195;48.562;9.192;2022-08-11T15:46:49;31.20;20.90
10300;DHT22;5195;48.562;9.192;2022-08-11T15:49:38;31.10;20.90
10300;DHT22;5195;48.562;9.192;2022-08-11T15:51:45;30.70;21.30
10300;DHT22;5195;48.562;9.192;2022-08-11T15:54:15;30.70;21.30
10300;DHT22;5195;48.562;9.192;2022-08-11T15:56:41;31.10;20.90
10300;DHT22;5195;48.562;9.192;2022-08-11T15:59:05;31.10;20.90
10300;DHT22;5195;48.562;9.192;2022-08-11T16:01:50;31.10;21.10
10300;DHT22;5195;48.562;9.192;2022-08-11T16:04:36;31.20;20.90
10300;DHT22;5195;48.562;9.192;2022-08-11T16:07:16;31.40;20.50
10300;DHT22;5195;48.562;9.192;2022-08-11T16:09:41;31.50;20.60
10300;DHT22;5195;48.562;9.192;2022-08-11T16:12:10;31.20;20.50
10300;DHT22;5195;48.562;9.192;2022-08-11T16:14:36;30.90;20.60
10300;DHT22;5195;48.562;9.192;2022-08-11T16:17:21;30.90;21.00
10300;DHT22;5195;48.562;9.192;2022-08-11T16:19:48;31.10;20.80
10300;DHT22;5195;48.562;9.192;2022-08-11T16:22:15;31.10;20.90
10300;DHT22;5195;48.562;9.192;2022-08-11T16:24:40;30.70;20.90
10300;DHT22;5195;48.562;9.192;2022-08-11T16:27:06;30.80;20.70
10300;DHT22;5195;48.562;9.192;2022-08-11T16:29:32;30.80;20.60
10300;DHT22;5195;48.562;9.192;2022-08-11T16:31:58;30.80;20.60
10300;DHT22;5195;48.562;9.192;2022-08-11T16:34:57;30.50;20.90
10300;DHT22;5195;48.562;9.192;2022-08-11T16:37:42;30.30;21.20
10300;DHT22;5195;48.562;9.192;2022-08-11T16:40:27;30.50;21.00
10300;DHT22;5195;48.562;9.192;2022-08-11T16:42:52;30.40;21.00
10300;DHT22;5195;48.562;9.192;2022-08-11T16:45:39;30.50;20.90
10300;DHT22;5195;48.562;9.192;2022-08-11T16:48:26;30.90;20.80
10300;DHT22;5195;48.562;9.192;2022-08-11T16:50:50;30.90;20.60
10300;DHT22;5195;48.562;9.192;2022-08-11T16:53:15;30.70;20.70
10300;DHT22;5195;48.562;9.192;2022-08-11T16:55:45;30.40;21.10
10300;DHT22;5195;48.562;9.192;2022-08-11T16:58:10;30.40;21.00
10300;DHT22;5195;48.562;9.192;2022-08-11T17:00:55;30.30;21.10
10300;DHT22;5195;48.562;9.192;2022-08-11T17:03:21;30.00;21.30
10300;DHT22;5195;48.562;9.192;2022-08-11T17:06:06;29.80;21.50
10300;DHT22;5195;48.562;9.192;2022-08-11T17:08:52;29.60;21.60
10300;DHT22;5195;48.562;9.192;2022-08-11T17:11:49;29.90;21.90
10300;DHT22;5195;48.562;9.192;2022-08-11T17:14:39;29.80;21.70
10300;DHT22;5195;48.562;9.192;2022-08-11T17:17:08;29.60;21.90
10300;DHT22;5195;48.562;9.192;2022-08-11T17:19:30;29.30;21.80
10300;DHT22;5195;48.562;9.192;2022-08-11T17:21:55;29.30;21.80
10300;DHT22;5195;48.562;9.192;2022-08-11T17:24:45;29.10;21.70
10300;DHT22;5195;48.562;9.192;2022-08-11T17:27:07;29.10;21.70
10300;DHT22;5195;48.562;9.192;2022-08-11T17:29:36;29.00;21.80
10300;DHT22;5195;48.562;9.192;2022-08-11T17:32:02;28.90;21.70
10300;DHT22;5195;48.562;9.192;2022-08-11T17:34:49;29.30;21.90
10300;DHT22;5195;48.562;9.192;2022-08-11T17:37:34;29.70;21.50
10300;DHT22;5195;48.562;9.192;2022-08-11T17:40:00;29.60;22.00
10300;DHT22;5195;48.562;9.192;2022-08-11T17:42:26;29.70;21.20
10300;DHT22;5195;48.562;9.192;2022-08-11T17:45:10;29.90;20.90
10300;DHT22;5195;48.562;9.192;2022-08-11T17:47:56;29.70;20.90
10300;DHT22;5195;48.562;9.192;2022-08-11T17:50:42;29.40;21.10
10300;DHT22;5195;48.562;9.192;2022-08-11T17:53:09;29.10;21.30
10300;DHT22;5195;48.562;9.192;2022-08-11T17:55:54;28.90;21.40
10300;DHT22;5195;48.562;9.192;2022-08-11T17:58:39;28.80;21.50
10300;DHT22;5195;48.562;9.192;2022-08-11T18:01:24;28.60;21.60
10300;DHT22;5195;48.562;9.192;2022-08-11T18:03:50;28.50;21.80
10300;DHT22;5195;48.562;9.192;2022-08-11T18:06:18;28.40;21.90
10300;DHT22;5195;48.562;9.192;2022-08-11T18:08:57;28.30;21.90
10300;DHT22;5195;48.562;9.192;2022-08-11T18:11:56;28.20;22.00
10300;DHT22;5195;48.562;9.192;2022-08-11T18:14:49;28.60;22.10
10300;DHT22;5195;48.562;9.192;2022-08-11T18:17:43;28.50;22.00
10300;DHT22;5195;48.562;9.192;2022-08-11T18:20:39;28.30;22.00
10300;DHT22;5195;48.562;9.192;2022-08-11T18:23:34;28.10;22.20
10300;DHT22;5195;48.562;9.192;2022-08-11T18:26:30;27.90;22.40
10300;DHT22;5195;48.562;9.192;2022-08-11T18:29:29;28.60;22.10
10300;DHT22;5195;48.562;9.192;2022-08-11T18:32:24;28.60;22.10
10300;DHT22;5195;48.562;9.192;2022-08-11T18:35:19;28.10;22.30
10300;DHT22;5195;48.562;9.192;2022-08-11T18:38:15;28.10;22.30
10300;DHT22;5195;48.562;9.192;2022-08-11T18:41:10;27.80;22.30
10300;DHT22;5195;48.562;9.192;2022-08-11T18:44:06;27.60;22.60
10300;DHT22;5195;48.562;9.192;2022-08-11T18:47:04;27.90;22.60
10300;DHT22;5195;48.562;9.192;2022-08-11T18:49:59;28.30;22.70
10300;DHT22;5195;48.562;9.192;2022-08-11T18:52:56;28.50;22.40
10300;DHT22;5195;48.562;9.192;2022-08-11T18:55:51;28.60;22.50
10300;DHT22;5195;48.562;9.192;2022-08-11T18:58:47;28.30;22.60
10300;DHT22;5195;48.562;9.192;2022-08-11T19:01:42;28.20;22.90
10300;DHT22;5195;48.562;9.192;2022-08-11T19:04:38;27.90;23.10
10300;DHT22;5195;48.562;9.192;2022-08-11T19:07:33;27.40;23.50
10300;DHT22;5195;48.562;9.192;2022-08-11T19:10:29;27.10;24.00
10300;DHT22;5195;48.562;9.192;2022-08-11T19:13:27;26.50;24.50
10300;DHT22;5195;48.562;9.192;2022-08-11T19:16:23;26.40;24.40
10300;DHT22;5195;48.562;9.192;2022-08-11T19:19:18;26.10;24.80
10300;DHT22;5195;48.562;9.192;2022-08-11T19:22:13;26.10;24.80
10300;DHT22;5195;48.562;9.192;2022-08-11T19:25:09;26.00;25.00
10300;DHT22;5195;48.562;9.192;2022-08-11T19:28:05;25.80;25.00
10300;DHT22;5195;48.562;9.192;2022-08-11T19:31:02;25.80;25.20
10300;DHT22;5195;48.562;9.192;2022-08-11T19:34:00;25.60;25.50
10300;DHT22;5195;48.562;9.192;2022-08-11T19:36:58;25.60;25.50
10300;DHT22;5195;48.562;9.192;2022-08-11T19:39:56;26.00;25.70
10300;DHT22;5195;48.562;9.192;2022-08-11T19:42:53;26.50;25.20
10300;DHT22;5195;48.562;9.192;2022-08-11T19:45:48;26.40;25.30
10300;DHT22;5195;48.562;9.192;2022-08-11T19:48:44;26.60;25.20
10300;DHT22;5195;48.562;9.192;2022-08-11T19:51:39;26.80;25.60